createdAt,value
2017-09-24T00:01:37.745Z,98852.88
2017-09-24T00:04:06.086Z,98853.79
2017-09-24T00:06:34.400Z,98853.77
2017-09-24T00:09:02.788Z,98852.63
2017-09-24T00:11:31.138Z,98849.78
2017-09-24T00:13:59.455Z,98848.15
2017-09-24T00:16:27.799Z,98854.59
2017-09-24T00:18:56.124Z,98855.10
2017-09-24T00:21:25.223Z,98852.72
2017-09-24T00:23:54.304Z,98848.53
2017-09-24T00:26:22.657Z,98850.16
2017-09-24T00:28:50.999Z,98851.56
2017-09-24T00:31:19.328Z,98845.69
2017-09-24T00:33:47.674Z,98842.15
2017-09-24T00:36:15.987Z,98848.77
2017-09-24T00:38:44.332Z,98842.02
2017-09-24T00:41:12.668Z,98835.88
2017-09-24T00:43:41.904Z,98835.57
2017-09-24T00:46:10.225Z,98839.15
2017-09-24T00:48:38.546Z,98838.09
2017-09-24T00:51:06.889Z,98835.79
2017-09-24T00:53:35.220Z,98834.01
2017-09-24T00:56:03.542Z,98830.24
2017-09-24T00:58:31.869Z,98831.30
2017-09-24T01:01:00.465Z,98826.13
2017-09-24T01:03:28.820Z,98822.16
2017-09-24T01:05:57.902Z,98837.11
2017-09-24T01:08:27.034Z,98832.64
2017-09-24T01:10:55.346Z,98838.78
2017-09-24T01:13:23.700Z,98834.23
2017-09-24T01:15:52.031Z,98837.39
2017-09-24T01:18:20.615Z,98834.08
2017-09-24T01:20:48.942Z,98831.51
2017-09-24T01:23:17.255Z,98831.08
2017-09-24T01:25:45.614Z,98833.83
2017-09-24T01:28:13.942Z,98838.77
2017-09-24T01:30:43.046Z,98834.98
2017-09-24T01:33:12.133Z,98835.25
2017-09-24T01:35:41.241Z,98829.66
2017-09-24T01:38:10.329Z,98827.64
2017-09-24T01:40:39.445Z,98830.39
2017-09-24T01:43:07.776Z,98826.21
2017-09-24T01:45:36.087Z,98828.27
2017-09-24T01:48:05.193Z,98829.83
2017-09-24T01:50:33.527Z,98832.86
2017-09-24T01:53:01.882Z,98827.28
2017-09-24T01:55:30.264Z,98824.86
2017-09-24T01:57:58.622Z,98831.08
2017-09-24T02:00:26.961Z,98825.98
2017-09-24T02:02:55.296Z,98825.28
2017-09-24T02:05:23.628Z,98826.06
2017-09-24T02:07:51.952Z,98822.17
2017-09-24T02:10:20.610Z,98825.17
2017-09-24T02:12:49.700Z,98826.27
2017-09-24T02:15:18.857Z,98825.28
2017-09-24T02:17:47.199Z,98827.35
2017-09-24T02:20:15.533Z,98828.67
2017-09-24T02:22:43.877Z,98829.25
2017-09-24T02:25:12.189Z,98827.47
2017-09-24T02:27:40.537Z,98831.67
2017-09-24T02:30:08.859Z,98830.42
2017-09-24T02:32:37.217Z,98828.89
2017-09-24T02:35:05.564Z,98828.87
2017-09-24T02:37:33.896Z,98831.66
2017-09-24T02:40:02.254Z,98833.50
2017-09-24T02:42:30.596Z,98831.44
2017-09-24T02:44:58.943Z,98834.25
2017-09-24T02:47:28.040Z,98829.72
2017-09-24T02:49:57.129Z,98841.45
2017-09-24T02:52:25.454Z,98835.73
2017-09-24T02:54:53.784Z,98839.28
2017-09-24T02:57:22.889Z,98831.74
2017-09-24T02:59:52.029Z,98832.48
2017-09-24T03:02:20.372Z,98831.14
2017-09-24T03:04:49.481Z,98833.33
2017-09-24T03:07:18.567Z,98836.23
2017-09-24T03:09:47.663Z,98833.05
2017-09-24T03:12:16.744Z,98837.69
2017-09-24T03:14:45.073Z,98839.40
2017-09-24T03:17:13.406Z,98836.91
2017-09-24T03:19:41.747Z,98835.52
2017-09-24T03:22:10.081Z,98838.31
2017-09-24T03:24:39.180Z,98839.32
2017-09-24T03:27:08.289Z,98840.92
2017-09-24T03:29:36.707Z,98834.58
2017-09-24T03:32:05.804Z,98833.73
2017-09-24T03:34:34.127Z,98830.23
2017-09-24T03:37:03.503Z,98828.89
2017-09-24T03:39:31.818Z,98833.28
2017-09-24T03:42:00.146Z,98835.91
2017-09-24T03:44:28.483Z,98837.09
2017-09-24T03:46:56.857Z,98829.84
2017-09-24T03:49:25.971Z,98828.50
2017-09-24T03:51:54.283Z,98825.00
2017-09-24T03:54:22.891Z,98828.83
2017-09-24T03:56:51.221Z,98824.61
2017-09-24T03:59:19.534Z,98821.91
2017-09-24T04:01:47.874Z,98829.86
2017-09-24T04:04:16.218Z,98826.42
2017-09-24T04:06:45.327Z,98820.09
2017-09-24T04:09:14.420Z,98820.31
2017-09-24T04:11:43.788Z,98823.71
2017-09-24T04:14:12.118Z,98828.20
2017-09-24T04:16:41.137Z,98826.55
2017-09-24T04:19:09.454Z,98828.19
2017-09-24T04:21:37.783Z,98831.95
2017-09-24T04:24:06.127Z,98827.94
2017-09-24T04:26:35.207Z,98837.27
2017-09-24T04:29:03.521Z,98831.53
2017-09-24T04:31:31.835Z,98834.88
2017-09-24T04:34:00.172Z,98835.52
2017-09-24T04:36:29.274Z,98840.10
2017-09-24T04:38:57.638Z,98838.08
2017-09-24T04:41:26.792Z,98840.73
2017-09-24T04:43:55.117Z,98841.41
2017-09-24T04:46:24.253Z,98841.81
2017-09-24T04:48:52.568Z,98839.36
2017-09-24T04:51:20.906Z,98841.65
2017-09-24T04:53:49.241Z,98843.52
2017-09-24T04:56:18.331Z,98843.45
2017-09-24T04:58:46.759Z,98844.63
2017-09-24T05:01:15.066Z,98848.84
2017-09-24T05:03:43.661Z,98847.78
2017-09-24T05:06:11.995Z,98849.32
2017-09-24T05:08:40.306Z,98848.64
2017-09-24T05:11:08.643Z,98846.23
2017-09-24T05:13:36.964Z,98854.30
2017-09-24T05:16:05.309Z,98856.73
2017-09-24T05:18:33.632Z,98859.53
2017-09-24T05:21:02.273Z,98855.94
2017-09-24T05:23:30.593Z,98853.28
2017-09-24T05:25:58.916Z,98852.78
2017-09-24T05:28:28.041Z,98856.78
2017-09-24T05:30:56.372Z,98863.69
2017-09-24T05:33:24.745Z,98862.34
2017-09-24T05:35:53.106Z,98862.19
2017-09-24T05:38:21.707Z,98861.87
2017-09-24T05:40:50.014Z,98868.45
2017-09-24T05:43:19.108Z,98868.58
2017-09-24T05:45:48.202Z,98867.19
2017-09-24T05:48:17.282Z,98863.83
2017-09-24T05:50:45.621Z,98865.14
2017-09-24T05:53:13.955Z,98866.37
2017-09-24T05:55:43.064Z,98855.25
2017-09-24T05:58:11.409Z,98859.63
2017-09-24T06:00:39.752Z,98859.52
2017-09-24T06:03:08.160Z,98855.73
2017-09-24T06:05:37.428Z,98862.60
2017-09-24T06:08:05.818Z,98861.31
2017-09-24T06:10:34.140Z,98861.72
2017-09-24T06:13:13.266Z,98863.44
2017-09-24T06:15:42.934Z,98863.44
2017-09-24T06:18:11.522Z,98869.64
2017-09-24T06:20:39.844Z,98868.52
2017-09-24T06:23:08.179Z,98867.79
2017-09-24T06:25:36.530Z,98875.63
2017-09-24T06:28:04.862Z,98875.73
2017-09-24T06:30:33.205Z,98877.94
2017-09-24T06:33:01.520Z,98885.83
2017-09-24T06:35:30.122Z,98887.05
2017-09-24T06:37:58.442Z,98883.31
2017-09-24T06:40:26.775Z,98883.78
2017-09-24T06:42:55.111Z,98895.33
2017-09-24T06:45:23.434Z,98892.85
2017-09-24T06:47:51.764Z,98898.23
2017-09-24T06:50:20.089Z,98900.62
2017-09-24T06:52:48.702Z,98898.28
2017-09-24T06:55:17.799Z,98902.68
2017-09-24T06:57:46.927Z,98896.65
2017-09-24T07:00:15.267Z,98896.92
2017-09-24T07:02:45.963Z,98894.72
2017-09-24T07:05:14.324Z,98892.27
2017-09-24T07:07:42.649Z,98893.58
2017-09-24T07:10:11.048Z,98896.34
2017-09-24T07:12:40.216Z,98897.95
2017-09-24T07:15:08.554Z,98904.98
2017-09-24T07:17:36.891Z,98905.72
2017-09-24T07:20:05.992Z,98900.78
2017-09-24T07:22:35.374Z,98905.55
2017-09-24T07:25:03.707Z,98905.27
2017-09-24T07:27:32.036Z,98905.17
2017-09-24T07:30:00.384Z,98902.69
2017-09-24T07:32:28.708Z,98907.14
2017-09-24T07:34:57.049Z,98900.61
2017-09-24T07:37:25.407Z,98909.42
2017-09-24T07:39:53.733Z,98913.73
2017-09-24T07:42:22.644Z,98911.25
2017-09-24T07:44:51.775Z,98910.06
2017-09-24T07:47:20.968Z,98908.52
2017-09-24T07:49:49.311Z,98906.52
2017-09-24T07:52:18.419Z,98914.45
2017-09-24T07:54:47.535Z,98912.48
2017-09-24T07:57:15.884Z,98920.05
2017-09-24T07:59:45.025Z,98914.20
2017-09-24T08:02:13.364Z,98910.41
2017-09-24T08:04:42.467Z,98911.50
2017-09-24T08:07:11.565Z,98913.13
2017-09-24T08:09:40.807Z,98914.71
2017-09-24T08:12:09.135Z,98911.64
2017-09-24T08:14:38.262Z,98907.73
2017-09-24T08:17:06.611Z,98911.00
2017-09-24T08:19:34.947Z,98911.27
2017-09-24T08:22:03.294Z,98914.84
2017-09-24T08:24:31.700Z,98917.85
2017-09-24T08:27:00.044Z,98912.99
2017-09-24T08:29:29.163Z,98927.52
2017-09-24T08:31:57.503Z,98918.66
2017-09-24T08:34:26.922Z,98913.58
2017-09-24T08:36:56.685Z,98910.50
2017-09-24T08:39:25.030Z,98906.50
2017-09-24T08:41:53.367Z,98908.41
2017-09-24T08:44:21.688Z,98910.42
2017-09-24T08:46:50.326Z,98915.77
2017-09-24T08:49:18.657Z,98907.73
2017-09-24T08:51:46.983Z,98912.81
2017-09-24T08:54:15.338Z,98914.13
2017-09-24T08:56:43.694Z,98915.70
2017-09-24T08:59:12.045Z,98912.75
2017-09-24T09:01:41.357Z,98916.35
2017-09-24T09:04:10.734Z,98910.49
2017-09-24T09:06:39.108Z,98912.21
2017-09-24T09:09:07.489Z,98907.61
2017-09-24T09:11:35.848Z,98898.33
2017-09-24T09:14:04.188Z,98906.89
2017-09-24T09:16:33.313Z,98899.17
2017-09-24T09:19:01.667Z,98902.45
2017-09-24T09:21:47.335Z,98895.95
2017-09-24T09:24:16.438Z,98893.34
2017-09-24T09:26:45.853Z,98891.59
2017-09-24T09:29:14.188Z,98896.66
2017-09-24T09:31:42.549Z,98897.42
2017-09-24T09:34:28.454Z,98901.07
2017-09-24T09:36:56.804Z,98896.89
2017-09-24T09:39:26.076Z,98893.82
2017-09-24T09:41:55.198Z,98889.34
2017-09-24T09:44:41.190Z,98889.11
2017-09-24T09:47:26.940Z,98887.11
2017-09-24T09:49:55.283Z,98893.23
2017-09-24T09:52:23.624Z,98893.46
2017-09-24T09:54:52.312Z,98886.49
2017-09-24T09:57:20.658Z,98886.70
2017-09-24T09:59:49.715Z,98886.78
2017-09-24T10:02:18.081Z,98881.55
2017-09-24T10:04:46.430Z,98885.53
2017-09-24T10:07:33.270Z,98881.11
2017-09-24T10:10:17.227Z,98875.38
2017-09-24T10:12:46.314Z,98871.70
2017-09-24T10:15:14.655Z,98877.42
2017-09-24T10:17:47.202Z,98862.75
2017-09-24T10:20:15.533Z,98868.44
2017-09-24T10:22:43.868Z,98870.91
2017-09-24T10:25:12.225Z,98866.37
2017-09-24T10:27:40.560Z,98868.94
2017-09-24T10:30:26.746Z,98872.41
2017-09-24T10:32:55.835Z,98872.83
2017-09-24T10:35:24.687Z,98863.11
2017-09-24T10:37:53.034Z,98866.77
2017-09-24T10:40:21.364Z,98861.11
2017-09-24T10:42:49.811Z,98864.66
2017-09-24T10:45:18.150Z,98864.34
2017-09-24T10:47:47.274Z,98859.27
2017-09-24T10:50:15.599Z,98856.12
2017-09-24T10:52:44.352Z,98849.44
2017-09-24T10:55:12.711Z,98845.56
2017-09-24T10:57:41.065Z,98846.59
2017-09-24T11:00:10.265Z,98838.84
2017-09-24T11:02:38.694Z,98844.34
2017-09-24T11:05:07.057Z,98839.03
2017-09-24T11:07:35.378Z,98840.64
2017-09-24T11:10:03.738Z,98839.09
2017-09-24T11:12:32.111Z,98838.14
2017-09-24T11:15:00.440Z,98840.98
2017-09-24T11:17:28.788Z,98840.61
2017-09-24T11:19:57.145Z,98844.22
2017-09-24T11:22:25.487Z,98837.97
2017-09-24T11:24:53.822Z,98838.55
2017-09-24T11:27:22.169Z,98836.73
2017-09-24T11:29:51.274Z,98833.92
2017-09-24T11:32:20.359Z,98834.74
2017-09-24T11:34:49.472Z,98836.92
2017-09-24T11:37:17.839Z,98841.08
2017-09-24T11:39:46.295Z,98832.30
2017-09-24T11:42:14.625Z,98832.47
2017-09-24T11:44:42.960Z,98829.64
2017-09-24T11:47:12.099Z,98827.87
2017-09-24T11:49:40.424Z,98830.77
2017-09-24T11:52:08.778Z,98825.73
2017-09-24T11:54:37.121Z,98832.23
2017-09-24T11:57:07.640Z,98823.30
2017-09-24T11:59:36.728Z,98817.64
2017-09-24T12:02:05.064Z,98816.99
2017-09-24T12:04:33.412Z,98819.03
2017-09-24T12:07:01.762Z,98816.95
2017-09-24T12:09:30.872Z,98809.69
2017-09-24T12:11:59.241Z,98810.33
2017-09-24T12:14:38.291Z,98811.75
2017-09-24T12:17:06.615Z,98806.08
2017-09-24T12:19:34.950Z,98802.62
2017-09-24T12:22:10.115Z,98801.05
2017-09-24T12:24:44.663Z,98801.80
2017-09-24T12:27:13.039Z,98811.31
2017-09-24T12:29:41.386Z,98803.74
2017-09-24T12:32:10.006Z,98808.02
2017-09-24T12:34:38.352Z,98810.81
2017-09-24T12:37:06.684Z,98802.32
2017-09-24T12:39:35.050Z,98810.67
2017-09-24T12:42:03.383Z,98809.72
2017-09-24T12:44:32.642Z,98811.61
2017-09-24T12:47:00.999Z,98813.85
2017-09-24T12:49:29.615Z,98810.63
2017-09-24T12:51:58.711Z,98807.23
2017-09-24T12:54:27.827Z,98810.98
2017-09-24T12:56:56.963Z,98809.38
2017-09-24T12:59:25.294Z,98802.32
2017-09-24T13:01:54.405Z,98794.17
2017-09-24T13:04:22.740Z,98798.48
2017-09-24T13:06:51.404Z,98793.75
2017-09-24T13:09:19.728Z,98797.69
2017-09-24T13:11:48.835Z,98797.89
2017-09-24T13:14:17.969Z,98794.05
2017-09-24T13:16:46.343Z,98795.78
2017-09-24T13:19:14.694Z,98789.08
2017-09-24T13:21:43.783Z,98787.06
2017-09-24T13:24:13.157Z,98786.41
2017-09-24T13:26:41.471Z,98784.94
2017-09-24T13:29:10.562Z,98783.14
2017-09-24T13:31:39.679Z,98783.61
2017-09-24T13:34:08.009Z,98778.43
2017-09-24T13:36:36.360Z,98789.81
2017-09-24T13:39:04.714Z,98786.85
2017-09-24T13:41:33.049Z,98780.34
2017-09-24T13:44:01.449Z,98776.46
2017-09-24T13:46:30.573Z,98782.84
2017-09-24T13:48:58.925Z,98778.77
2017-09-24T13:51:28.091Z,98783.97
2017-09-24T13:53:56.437Z,98783.09
2017-09-24T13:56:24.781Z,98788.89
2017-09-24T13:58:53.904Z,98786.02
2017-09-24T14:01:22.261Z,98791.55
2017-09-24T14:03:51.362Z,98784.01
2017-09-24T14:06:20.476Z,98781.15
2017-09-24T14:08:48.814Z,98783.02
2017-09-24T14:11:17.206Z,98780.84
2017-09-24T14:13:45.539Z,98786.89
2017-09-24T14:16:13.889Z,98780.26
2017-09-24T14:18:43.033Z,98778.39
2017-09-24T14:21:11.359Z,98779.30
2017-09-24T14:23:40.492Z,98784.76
2017-09-24T14:26:08.830Z,98782.81
2017-09-24T14:28:38.209Z,98780.30
2017-09-24T14:31:06.538Z,98781.89
2017-09-24T14:33:35.121Z,98790.26
2017-09-24T14:36:03.736Z,98783.36
2017-09-24T14:38:32.100Z,98787.58
2017-09-24T14:41:00.443Z,98786.22
2017-09-24T14:43:29.744Z,98794.58
2017-09-24T14:45:58.387Z,98788.69
2017-09-24T14:48:26.715Z,98787.01
2017-09-24T14:50:55.827Z,98787.34
2017-09-24T14:53:24.200Z,98779.80
2017-09-24T14:55:52.530Z,98777.02
2017-09-24T14:58:20.878Z,98774.63
2017-09-24T15:00:49.196Z,98776.11
2017-09-24T15:03:17.581Z,98774.05
2017-09-24T15:05:45.924Z,98779.45
2017-09-24T15:08:14.265Z,98779.94
2017-09-24T15:10:43.391Z,98772.27
2017-09-24T15:13:11.740Z,98778.79
2017-09-24T15:15:40.866Z,98767.27
2017-09-24T15:18:09.197Z,98770.19
2017-09-24T15:20:37.916Z,98776.61
2017-09-24T15:23:06.386Z,98774.73
2017-09-24T15:25:34.728Z,98769.48
2017-09-24T15:28:03.083Z,98770.84
2017-09-24T15:30:31.405Z,98772.65
2017-09-24T15:32:59.770Z,98771.70
2017-09-24T15:35:28.100Z,98770.45
2017-09-24T15:37:56.704Z,98773.70
2017-09-24T15:40:25.035Z,98774.48
2017-09-24T15:42:53.360Z,98778.23
2017-09-24T15:45:21.720Z,98774.33
2017-09-24T15:47:50.118Z,98782.92
2017-09-24T15:50:18.474Z,98777.44
2017-09-24T15:52:47.200Z,98774.37
2017-09-24T15:55:15.803Z,98773.48
2017-09-24T15:57:44.148Z,98776.48
2017-09-24T16:00:12.522Z,98781.13
2017-09-24T16:02:41.459Z,98782.29
2017-09-24T16:05:09.805Z,98785.16
2017-09-24T16:07:38.166Z,98790.13
2017-09-24T16:10:06.532Z,98786.47
2017-09-24T16:12:35.665Z,98785.06
2017-09-24T16:15:04.001Z,98787.69
2017-09-24T16:17:33.111Z,98789.29
2017-09-24T16:20:02.231Z,98797.16
2017-09-24T16:22:30.568Z,98792.51
2017-09-24T16:25:00.540Z,98798.44
2017-09-24T16:27:28.860Z,98798.91
2017-09-24T16:29:57.228Z,98801.12
2017-09-24T16:32:26.364Z,98805.84
2017-09-24T16:34:56.121Z,98807.90
2017-09-24T16:37:24.991Z,98808.19
2017-09-24T16:39:53.312Z,98808.23
2017-09-24T16:42:21.660Z,98810.39
2017-09-24T16:44:50.209Z,98811.91
2017-09-24T16:47:18.895Z,98817.45
2017-09-24T16:49:47.235Z,98822.95
2017-09-24T16:52:15.569Z,98820.92
2017-09-24T16:54:43.920Z,98822.38
2017-09-24T16:57:13.029Z,98824.70
2017-09-24T16:59:41.367Z,98822.77
2017-09-24T17:02:09.710Z,98821.27
2017-09-24T17:04:38.072Z,98830.70
2017-09-24T17:07:06.410Z,98827.91
2017-09-24T17:09:34.786Z,98827.05
2017-09-24T17:12:03.139Z,98826.66
2017-09-24T17:14:31.571Z,98823.02
2017-09-24T17:16:59.944Z,98829.41
2017-09-24T17:19:28.784Z,98826.19
2017-09-24T17:21:57.166Z,98829.63
2017-09-24T17:24:25.499Z,98828.22
2017-09-24T17:26:55.047Z,98829.13
2017-09-24T17:29:23.425Z,98834.50
2017-09-24T17:31:51.785Z,98832.63
2017-09-24T17:34:20.903Z,98831.02
2017-09-24T17:36:49.257Z,98829.16
2017-09-24T17:39:19.789Z,98835.06
2017-09-24T17:41:48.193Z,98832.50
2017-09-24T17:44:16.535Z,98832.86
2017-09-24T17:46:44.873Z,98829.13
2017-09-24T17:49:13.344Z,98832.20
2017-09-24T17:51:41.679Z,98831.69
2017-09-24T17:54:10.777Z,98835.95
2017-09-24T17:56:39.141Z,98836.75
2017-09-24T17:59:07.659Z,98849.34
2017-09-24T18:01:37.102Z,98835.23
2017-09-24T18:04:05.434Z,98844.69
2017-09-24T18:06:34.053Z,98844.59
2017-09-24T18:09:02.391Z,98845.08
2017-09-24T18:11:31.495Z,98844.91
2017-09-24T18:13:59.858Z,98852.95
2017-09-24T18:16:28.209Z,98855.77
2017-09-24T18:18:56.568Z,98855.79
2017-09-24T18:21:25.669Z,98856.98
2017-09-24T18:23:54.036Z,98856.16
2017-09-24T18:26:22.367Z,98851.53
2017-09-24T18:28:50.722Z,98855.08
2017-09-24T18:31:19.098Z,98854.99
2017-09-24T18:33:47.438Z,98857.79
2017-09-24T18:36:15.822Z,98860.37
2017-09-24T18:38:44.193Z,98857.48
2017-09-24T18:41:12.546Z,98858.28
2017-09-24T18:43:40.898Z,98854.81
2017-09-24T18:46:09.236Z,98862.17
2017-09-24T18:48:37.576Z,98859.81
2017-09-24T18:51:05.941Z,98867.08
2017-09-24T18:53:34.288Z,98869.27
2017-09-24T18:56:02.654Z,98865.73
2017-09-24T18:58:30.998Z,98865.77
2017-09-24T19:01:00.432Z,98869.34
2017-09-24T19:03:28.775Z,98867.17
2017-09-24T19:05:57.229Z,98867.67
2017-09-24T19:08:26.321Z,98869.17
2017-09-24T19:10:54.668Z,98870.86
2017-09-24T19:13:23.798Z,98869.35
2017-09-24T19:15:52.128Z,98871.75
2017-09-24T19:18:20.498Z,98869.19
2017-09-24T19:20:51.641Z,98869.83
2017-09-24T19:23:20.267Z,98867.05
2017-09-24T19:25:48.649Z,98869.05
2017-09-24T19:28:17.006Z,98878.97
2017-09-24T19:30:45.400Z,98876.58
2017-09-24T19:33:14.789Z,98879.47
2017-09-24T19:35:43.141Z,98877.25
2017-09-24T19:38:11.506Z,98880.41
2017-09-24T19:40:39.870Z,98880.45
2017-09-24T19:43:08.210Z,98876.48
2017-09-24T19:45:37.659Z,98871.72
2017-09-24T19:48:06.007Z,98867.78
2017-09-24T19:50:34.344Z,98871.72
2017-09-24T19:53:02.965Z,98869.69
2017-09-24T19:55:32.078Z,98869.41
2017-09-24T19:58:00.450Z,98873.75
2017-09-24T20:00:28.799Z,98876.52
2017-09-24T20:02:57.157Z,98870.36
2017-09-24T20:05:25.501Z,98873.87
2017-09-24T20:07:54.650Z,98879.45
2017-09-24T20:10:24.039Z,98874.19
2017-09-24T20:12:52.399Z,98875.13
2017-09-24T20:15:20.743Z,98876.55
2017-09-24T20:17:49.091Z,98882.83
2017-09-24T20:20:17.473Z,98881.25
2017-09-24T20:22:46.937Z,98880.20
2017-09-24T20:25:15.289Z,98887.55
2017-09-24T20:27:45.107Z,98889.16
2017-09-24T20:30:13.463Z,98893.16
2017-09-24T20:32:42.576Z,98897.98
2017-09-24T20:35:11.705Z,98896.14
2017-09-24T20:37:40.063Z,98894.41
2017-09-24T20:40:08.424Z,98897.03
2017-09-24T20:42:37.518Z,98900.92
2017-09-24T20:45:05.897Z,98905.23
2017-09-24T20:47:34.245Z,98900.23
2017-09-24T20:50:02.587Z,98910.09
2017-09-24T20:52:30.947Z,98905.97
2017-09-24T20:54:59.315Z,98902.17
2017-09-24T20:57:27.916Z,98904.52
2017-09-24T20:59:57.013Z,98905.28
2017-09-24T21:02:25.350Z,98898.16
2017-09-24T21:04:53.708Z,98902.60
2017-09-24T21:07:22.036Z,98900.84
2017-09-24T21:09:51.171Z,98896.48
2017-09-24T21:12:19.511Z,98895.47
2017-09-24T21:14:47.855Z,98894.44
2017-09-24T21:17:16.186Z,98898.45
2017-09-24T21:19:45.318Z,98904.23
2017-09-24T21:22:13.658Z,98895.34
2017-09-24T21:24:41.975Z,98899.88
2017-09-24T21:27:10.315Z,98903.52
2017-09-24T21:29:39.415Z,98899.55
2017-09-24T21:32:07.764Z,98903.53
2017-09-24T21:34:36.099Z,98907.54
2017-09-24T21:37:04.453Z,98910.67
2017-09-24T21:39:33.575Z,98909.16
2017-09-24T21:42:01.914Z,98903.91
2017-09-24T21:44:31.031Z,98904.12
2017-09-24T21:46:59.365Z,98904.95
2017-09-24T21:49:27.748Z,98903.19
2017-09-24T21:51:56.071Z,98904.92
2017-09-24T21:54:24.421Z,98900.98
2017-09-24T21:56:52.754Z,98901.88
2017-09-24T21:59:21.096Z,98904.44
2017-09-24T22:01:50.200Z,98902.92
2017-09-24T22:04:18.545Z,98899.73
2017-09-24T22:06:46.908Z,98902.67
2017-09-24T22:09:16.775Z,98897.19
2017-09-24T22:11:45.859Z,98900.02
2017-09-24T22:14:15.078Z,98896.39
2017-09-24T22:16:43.432Z,98902.45
2017-09-24T22:19:12.534Z,98894.72
2017-09-24T22:21:41.722Z,98894.74
2017-09-24T22:24:10.190Z,98887.82
2017-09-24T22:26:38.528Z,98882.88
2017-09-24T22:29:06.847Z,98881.33
2017-09-24T22:31:35.190Z,98877.98
2017-09-24T22:34:03.513Z,98879.03
2017-09-24T22:36:31.846Z,98876.95
2017-09-24T22:39:00.163Z,98877.59
2017-09-24T22:41:28.875Z,98879.65
2017-09-24T22:43:58.376Z,98885.70
2017-09-24T22:46:27.471Z,98881.78
2017-09-24T22:48:55.804Z,98873.94
2017-09-24T22:51:24.145Z,98872.40
2017-09-24T22:53:53.276Z,98870.45
2017-09-24T22:56:21.599Z,98869.86
2017-09-24T22:58:50.319Z,98872.17
2017-09-24T23:01:18.664Z,98871.35
2017-09-24T23:03:47.002Z,98871.77
2017-09-24T23:06:15.559Z,98863.61
2017-09-24T23:08:44.650Z,98865.00
2017-09-24T23:11:13.776Z,98866.30
2017-09-24T23:13:42.123Z,98861.55
2017-09-24T23:16:13.001Z,98864.18
2017-09-24T23:18:41.318Z,98862.64
2017-09-24T23:21:09.654Z,98858.87
2017-09-24T23:23:38.029Z,98860.88
2017-09-24T23:26:06.370Z,98856.41
2017-09-24T23:28:35.475Z,98848.34
2017-09-24T23:31:03.805Z,98853.49
2017-09-24T23:33:32.578Z,98849.86
2017-09-24T23:36:00.915Z,98846.03
2017-09-24T23:38:29.234Z,98848.87
2017-09-24T23:40:57.576Z,98845.94
2017-09-24T23:43:26.674Z,98844.88
2017-09-24T23:45:55.066Z,98842.20
2017-09-24T23:48:23.392Z,98835.75
2017-09-24T23:50:51.741Z,98839.58
2017-09-24T23:53:20.073Z,98837.11
2017-09-24T23:55:48.428Z,98838.42
2017-09-24T23:58:16.779Z,98834.92
